Time;durP1;ratioP1;P1;durP2;ratioP2;P2;SDS_P1;SDS_P2;PMS_P1;PMS_P2;Temp;Humidity;BMP_temperature;BMP_pressure;BME280_temperature;BME280_humidity;BME280_pressure;Samples;Min_cycle;Max_cycle;Signal;HPM_P1;HPM_P2
2021/07/18 00:00:38;;;;;;;5.63;2.35;;;;;;;;;;5085625;28;20064;-79
2021/07/18 00:03:03;;;;;;;3.08;1.20;;;;;;;;;;5085965;28;20040;-79
2021/07/18 00:05:29;;;;;;;9.23;1.80;;;;;;;;;;5101827;28;20028;-79
2021/07/18 00:08:01;;;;;;;7.38;1.92;;;;;;;;;;5085262;28;20042;-79
2021/07/18 00:10:28;;;;;;;4.30;1.77;;;;;;;;;;5085760;28;20479;-79
2021/07/18 00:12:53;;;;;;;9.65;1.75;;;;;;;;;;5085595;28;20399;-79
2021/07/18 00:15:20;;;;;;;5.47;2.03;;;;;;;;;;5100862;28;20035;-79
2021/07/18 00:17:45;;;;;;;6.40;1.95;;;;;;;;;;5100861;28;20107;-79
2021/07/18 00:20:14;;;;;;;10.63;2.10;;;;;;;;;;5112356;28;20063;-79
2021/07/18 00:22:41;;;;;;;3.60;1.92;;;;;;;;;;5105370;28;20474;-79
2021/07/18 00:25:09;;;;;;;13.20;1.75;;;;;;;;;;5104783;28;20035;-79
2021/07/18 00:27:35;;;;;;;5.55;1.75;;;;;;;;;;5105476;28;20122;-79
2021/07/18 00:30:02;;;;;;;5.38;2.00;;;;;;;;;;5121089;28;20039;-79
2021/07/18 00:32:28;;;;;;;4.53;1.42;;;;;;;;;;5120392;28;20039;-79
2021/07/18 00:34:54;;;;;;;7.05;1.88;;;;;;;;;;5103776;28;20027;-79
2021/07/18 00:37:21;;;;;;;5.15;2.08;;;;;;;;;;5105015;28;20090;-79
2021/07/18 00:39:47;;;;;;;5.07;1.65;;;;;;;;;;5104502;28;20457;-79
2021/07/18 00:42:18;;;;;;;5.07;1.60;;;;;;;;;;5104194;28;20092;-79
2021/07/18 00:44:44;;;;;;;3.20;1.58;;;;;;;;;;5104415;28;20118;-79
2021/07/18 00:47:09;;;;;;;4.57;1.70;;;;;;;;;;5104269;28;20055;-79
2021/07/18 00:49:37;;;;;;;3.90;1.38;;;;;;;;;;5098894;28;20036;-79
2021/07/18 00:52:04;;;;;;;2.50;1.50;;;;;;;;;;5100568;28;20036;-79
2021/07/18 00:54:33;;;;;;;4.18;1.48;;;;;;;;;;5092348;28;20051;-79
2021/07/18 00:57:00;;;;;;;12.93;2.00;;;;;;;;;;5105746;28;20036;-79
2021/07/18 00:59:27;;;;;;;2.85;1.55;;;;;;;;;;5122209;28;20036;-79
2021/07/18 01:01:54;;;;;;;6.22;2.10;;;;;;;;;;5122556;28;20136;-79
2021/07/18 01:04:22;;;;;;;3.67;1.80;;;;;;;;;;5104739;28;20122;-79
2021/07/18 01:06:47;;;;;;;6.03;1.60;;;;;;;;;;5104993;28;20114;-79
2021/07/18 01:09:13;;;;;;;6.38;1.70;;;;;;;;;;5105023;28;20066;-79
2021/07/18 01:11:39;;;;;;;10.10;2.63;;;;;;;;;;5105565;28;20043;-79
2021/07/18 01:14:06;;;;;;;12.80;1.90;;;;;;;;;;5122518;28;20026;-79
2021/07/18 01:16:32;;;;;;;5.85;1.73;;;;;;;;;;5103367;28;20031;-79
2021/07/18 01:19:00;;;;;;;6.80;1.67;;;;;;;;;;5100229;28;20082;-79
2021/07/18 01:21:26;;;;;;;4.13;1.70;;;;;;;;;;5100809;28;20578;-79
2021/07/18 01:23:54;;;;;;;3.90;1.65;;;;;;;;;;5090173;28;20192;-79
2021/07/18 01:26:20;;;;;;;3.75;1.42;;;;;;;;;;5081448;28;20033;-79
2021/07/18 01:28:46;;;;;;;2.67;1.52;;;;;;;;;;5079856;28;20088;-79
2021/07/18 01:31:12;;;;;;;5.25;1.70;;;;;;;;;;5080746;28;20044;-79
2021/07/18 01:33:37;;;;;;;6.03;1.92;;;;;;;;;;5079879;28;20041;-79
2021/07/18 01:36:03;;;;;;;2.63;1.55;;;;;;;;;;5061790;28;20032;-79
2021/07/18 01:38:32;;;;;;;3.85;1.70;;;;;;;;;;5062731;28;20079;-79
2021/07/18 01:40:57;;;;;;;5.40;1.77;;;;;;;;;;5061983;28;20099;-79
2021/07/18 01:43:22;;;;;;;12.30;1.90;;;;;;;;;;5060690;28;20056;-79
2021/07/18 01:45:48;;;;;;;3.92;1.98;;;;;;;;;;5067486;28;20033;-78
2021/07/18 01:48:15;;;;;;;9.68;2.33;;;;;;;;;;5041528;28;20044;-79
2021/07/18 01:50:42;;;;;;;6.60;2.00;;;;;;;;;;5057486;28;20515;-79
2021/07/18 01:53:07;;;;;;;10.63;1.80;;;;;;;;;;5056706;28;20040;-79
2021/07/18 01:55:33;;;;;;;8.65;1.70;;;;;;;;;;5056506;28;20033;-79
2021/07/18 01:57:58;;;;;;;9.70;1.58;;;;;;;;;;5056881;28;20040;-79
2021/07/18 02:00:25;;;;;;;12.07;1.90;;;;;;;;;;5055948;28;20488;-79
2021/07/18 02:02:51;;;;;;;10.05;1.98;;;;;;;;;;5055851;28;20415;-79
2021/07/18 02:05:19;;;;;;;10.10;1.92;;;;;;;;;;5055313;28;20472;-79
2021/07/18 02:07:46;;;;;;;7.07;2.25;;;;;;;;;;5055986;28;20037;-79
2021/07/18 02:10:16;;;;;;;12.55;2.10;;;;;;;;;;5056373;28;20107;-79
2021/07/18 02:12:42;;;;;;;3.90;1.65;;;;;;;;;;5055804;28;20503;-79
2021/07/18 02:15:10;;;;;;;4.10;1.60;;;;;;;;;;5060759;28;20090;-79
2021/07/18 02:17:36;;;;;;;12.55;1.80;;;;;;;;;;5060327;28;20028;-79
2021/07/18 02:20:07;;;;;;;10.00;2.90;;;;;;;;;;5077518;28;20073;-79
2021/07/18 02:22:43;;;;;;;5.32;1.85;;;;;;;;;;5061593;28;20495;-80
2021/07/18 02:25:09;;;;;;;7.57;2.10;;;;;;;;;;5060106;28;20040;-79
2021/07/18 02:27:36;;;;;;;10.75;2.30;;;;;;;;;;5076640;28;20173;-79
2021/07/18 02:30:08;;;;;;;9.35;3.78;;;;;;;;;;5060984;28;20040;-79
2021/07/18 02:32:35;;;;;;;3.35;1.73;;;;;;;;;;5061660;28;20037;-79
2021/07/18 02:35:03;;;;;;;7.32;1.92;;;;;;;;;;5062595;28;20123;-79
2021/07/18 02:37:29;;;;;;;7.90;2.15;;;;;;;;;;5062811;28;20033;-79
2021/07/18 02:39:54;;;;;;;10.20;1.80;;;;;;;;;;5080024;28;20498;-79
2021/07/18 02:42:19;;;;;;;9.10;1.83;;;;;;;;;;5079318;28;20106;-80
2021/07/18 02:44:45;;;;;;;5.85;1.70;;;;;;;;;;5066819;28;20039;-79
2021/07/18 02:47:10;;;;;;;5.38;2.38;;;;;;;;;;5083694;28;20063;-80
2021/07/18 02:49:38;;;;;;;2.33;1.55;;;;;;;;;;5083388;28;20398;-79
2021/07/18 02:52:04;;;;;;;9.23;2.10;;;;;;;;;;5083698;28;20044;-79
2021/07/18 02:54:30;;;;;;;6.97;1.95;;;;;;;;;;5101694;28;20059;-80
2021/07/18 02:56:56;;;;;;;5.88;1.95;;;;;;;;;;5083061;28;20479;-79
2021/07/18 02:59:21;;;;;;;4.30;1.45;;;;;;;;;;5099434;28;20074;-79
2021/07/18 03:01:47;;;;;;;3.65;1.67;;;;;;;;;;5082803;28;20028;-80
2021/07/18 03:04:12;;;;;;;6.50;1.98;;;;;;;;;;5099269;28;20040;-80
2021/07/18 03:06:37;;;;;;;13.13;2.10;;;;;;;;;;5098683;28;20028;-80
2021/07/18 03:09:03;;;;;;;8.07;1.52;;;;;;;;;;5098536;28;20039;-80
2021/07/18 03:11:32;;;;;;;6.07;2.28;;;;;;;;;;5098467;28;20483;-80
2021/07/18 03:13:57;;;;;;;7.15;1.80;;;;;;;;;;5101715;28;20115;-80
2021/07/18 03:16:25;;;;;;;1.95;1.40;;;;;;;;;;5085146;28;20486;-80
2021/07/18 03:18:50;;;;;;;12.20;2.30;;;;;;;;;;5066160;28;20039;-80
2021/07/18 03:21:18;;;;;;;5.72;1.95;;;;;;;;;;5066187;28;20131;-80
2021/07/18 03:23:43;;;;;;;9.30;2.60;;;;;;;;;;5065814;28;20055;-80
2021/07/18 03:26:09;;;;;;;4.38;1.80;;;;;;;;;;5065043;28;20033;-80
2021/07/18 03:28:34;;;;;;;3.63;1.73;;;;;;;;;;5063769;28;20121;-79
2021/07/18 03:31:00;;;;;;;4.70;2.00;;;;;;;;;;5081057;28;20040;-79
2021/07/18 03:33:25;;;;;;;6.28;1.80;;;;;;;;;;5063796;28;20051;-80
2021/07/18 03:35:52;;;;;;;9.13;2.35;;;;;;;;;;5064029;28;20032;-80
2021/07/18 03:38:19;;;;;;;9.82;2.72;;;;;;;;;;5081885;28;20471;-79
2021/07/18 03:40:44;;;;;;;4.75;1.95;;;;;;;;;;5064128;28;20042;-80
2021/07/18 03:43:10;;;;;;;8.40;1.90;;;;;;;;;;5080697;28;20469;-80
2021/07/18 03:45:36;;;;;;;1.85;1.50;;;;;;;;;;5065554;28;20033;-81
2021/07/18 03:48:01;;;;;;;6.75;1.85;;;;;;;;;;5066663;28;20101;-80
2021/07/18 03:50:30;;;;;;;3.30;1.60;;;;;;;;;;5085362;28;20056;-80
2021/07/18 03:52:55;;;;;;;6.35;2.30;;;;;;;;;;5066987;28;20400;-79
2021/07/18 03:55:21;;;;;;;4.05;2.03;;;;;;;;;;5066659;28;20034;-80
2021/07/18 03:57:48;;;;;;;8.05;2.55;;;;;;;;;;5065433;28;20042;-80
2021/07/18 04:00:15;;;;;;;6.55;1.83;;;;;;;;;;5082894;28;20094;-80
2021/07/18 04:02:42;;;;;;;4.20;1.80;;;;;;;;;;5083417;28;20045;-80
2021/07/18 04:05:08;;;;;;;9.30;2.10;;;;;;;;;;5064670;28;20028;-80
2021/07/18 04:07:35;;;;;;;6.68;2.10;;;;;;;;;;5064756;28;20037;-80
2021/07/18 04:10:03;;;;;;;5.70;1.58;;;;;;;;;;5080924;28;20029;-79
2021/07/18 04:12:29;;;;;;;5.72;2.25;;;;;;;;;;5064538;28;20034;-80
2021/07/18 04:14:55;;;;;;;8.20;2.13;;;;;;;;;;5064674;28;20063;-80
2021/07/18 04:17:21;;;;;;;7.60;1.83;;;;;;;;;;5066616;28;20031;-80
2021/07/18 04:19:46;;;;;;;3.55;1.90;;;;;;;;;;5065268;28;20040;-81
2021/07/18 04:22:12;;;;;;;7.68;2.10;;;;;;;;;;5064326;28;20021;-80
2021/07/18 04:24:40;;;;;;;5.88;2.20;;;;;;;;;;5064447;28;20053;-80
2021/07/18 04:27:06;;;;;;;9.68;2.13;;;;;;;;;;5081851;28;20130;-80
2021/07/18 04:29:32;;;;;;;4.60;2.13;;;;;;;;;;5082484;28;20526;-80
2021/07/18 04:31:58;;;;;;;6.05;2.20;;;;;;;;;;5100564;28;20029;-81
2021/07/18 04:34:23;;;;;;;4.30;2.03;;;;;;;;;;5101569;28;20088;-80
2021/07/18 04:36:48;;;;;;;5.15;1.52;;;;;;;;;;5101369;28;20028;-80
2021/07/18 04:39:14;;;;;;;8.77;2.42;;;;;;;;;;5084083;28;20029;-80
2021/07/18 04:41:40;;;;;;;12.80;2.33;;;;;;;;;;5101999;28;20036;-80
2021/07/18 04:44:09;;;;;;;9.13;2.15;;;;;;;;;;5103275;28;20037;-80
2021/07/18 04:46:34;;;;;;;12.35;1.90;;;;;;;;;;5067536;28;20111;-80
2021/07/18 04:49:03;;;;;;;10.68;2.47;;;;;;;;;;5066883;28;20385;-80
2021/07/18 04:51:28;;;;;;;6.57;2.40;;;;;;;;;;5090704;28;20377;-81
2021/07/18 04:53:54;;;;;;;8.25;3.22;;;;;;;;;;5078900;28;20680;-80
2021/07/18 04:56:21;;;;;;;13.07;3.30;;;;;;;;;;5079106;28;20111;-81
2021/07/18 04:58:47;;;;;;;7.32;3.78;;;;;;;;;;5079030;28;20039;-81
2021/07/18 05:01:12;;;;;;;7.10;3.97;;;;;;;;;;5078528;28;20040;-80
2021/07/18 05:03:41;;;;;;;7.10;4.10;;;;;;;;;;5079523;28;20484;-80
2021/07/18 05:06:07;;;;;;;17.90;4.82;;;;;;;;;;5078525;28;20036;-81
2021/07/18 05:08:33;;;;;;;9.07;4.40;;;;;;;;;;5095267;28;20032;-80
2021/07/18 05:11:03;;;;;;;11.13;4.00;;;;;;;;;;5094642;28;20058;-80
2021/07/18 05:13:30;;;;;;;10.50;5.03;;;;;;;;;;5077195;28;20039;-80
2021/07/18 05:15:58;;;;;;;14.18;7.82;;;;;;;;;;5077344;28;20106;-81
2021/07/18 05:18:24;;;;;;;9.73;5.13;;;;;;;;;;5078658;28;20496;-80
2021/07/18 05:20:49;;;;;;;9.02;5.35;;;;;;;;;;5077612;28;20067;-80
2021/07/18 05:23:14;;;;;;;10.57;5.95;;;;;;;;;;5088499;28;20105;-81
2021/07/18 05:25:40;;;;;;;10.18;5.57;;;;;;;;;;5084928;28;20036;-81
2021/07/18 05:28:05;;;;;;;10.95;4.70;;;;;;;;;;5102118;28;20034;-81
2021/07/18 05:30:31;;;;;;;9.68;4.15;;;;;;;;;;5084446;28;20036;-81
2021/07/18 05:32:57;;;;;;;6.75;3.30;;;;;;;;;;5118092;28;20028;-81
2021/07/18 05:35:23;;;;;;;6.05;3.17;;;;;;;;;;5100260;28;20114;-81
2021/07/18 05:37:50;;;;;;;10.52;4.68;;;;;;;;;;5101563;28;20062;-81
2021/07/18 05:40:16;;;;;;;11.93;5.22;;;;;;;;;;5101187;28;20039;-81
2021/07/18 05:42:41;;;;;;;11.32;5.03;;;;;;;;;;5100752;28;20096;-81
2021/07/18 05:45:08;;;;;;;5.32;3.40;;;;;;;;;;5100674;28;20058;-81
2021/07/18 05:47:34;;;;;;;6.75;3.63;;;;;;;;;;5084224;28;20031;-81
2021/07/18 05:50:02;;;;;;;8.02;3.58;;;;;;;;;;5102343;27;20035;-81
2021/07/18 05:52:27;;;;;;;5.43;3.60;;;;;;;;;;5103711;27;20527;-81
2021/07/18 05:54:55;;;;;;;8.85;4.10;;;;;;;;;;5103839;27;20031;-81
2021/07/18 05:57:21;;;;;;;9.00;4.38;;;;;;;;;;5104697;27;20550;-81
2021/07/18 05:59:46;;;;;;;6.50;4.22;;;;;;;;;;5086328;28;20035;-81
2021/07/18 06:02:12;;;;;;;10.73;5.22;;;;;;;;;;5100566;28;20075;-81
2021/07/18 06:04:37;;;;;;;8.70;4.85;;;;;;;;;;5100043;28;20040;-80
2021/07/18 06:07:04;;;;;;;9.43;4.35;;;;;;;;;;5100067;28;20055;-80
2021/07/18 06:09:31;;;;;;;8.18;4.65;;;;;;;;;;5099815;28;20035;-80
2021/07/18 06:11:56;;;;;;;11.60;4.70;;;;;;;;;;5100068;28;20046;-80
2021/07/18 06:14:22;;;;;;;9.50;5.45;;;;;;;;;;5083552;28;20032;-80
2021/07/18 06:16:47;;;;;;;7.65;4.43;;;;;;;;;;5100392;28;20034;-77
2021/07/18 06:19:13;;;;;;;7.35;4.80;;;;;;;;;;5080916;28;20035;-78
2021/07/18 06:21:38;;;;;;;6.55;4.60;;;;;;;;;;5114964;28;20042;-77
2021/07/18 06:24:04;;;;;;;7.38;5.30;;;;;;;;;;5078233;28;20043;-77
2021/07/18 06:26:29;;;;;;;10.00;4.05;;;;;;;;;;5113366;28;20441;-77
2021/07/18 06:28:55;;;;;;;5.90;3.60;;;;;;;;;;5106240;28;20059;-78
2021/07/18 06:31:21;;;;;;;9.15;4.57;;;;;;;;;;5080061;28;20089;-78
2021/07/18 06:33:46;;;;;;;8.07;3.95;;;;;;;;;;5078706;28;20075;-78
2021/07/18 06:36:13;;;;;;;7.53;3.78;;;;;;;;;;5062988;28;20043;-79
2021/07/18 06:38:39;;;;;;;6.75;3.70;;;;;;;;;;5062454;28;20035;-79
2021/07/18 06:41:06;;;;;;;6.13;3.38;;;;;;;;;;5061780;28;20483;-79
2021/07/18 06:43:33;;;;;;;7.88;3.70;;;;;;;;;;5061383;28;20505;-78
2021/07/18 06:46:00;;;;;;;6.72;3.90;;;;;;;;;;5060982;28;20471;-79
2021/07/18 06:48:26;;;;;;;6.43;3.40;;;;;;;;;;5080454;28;20062;-79
2021/07/18 06:50:52;;;;;;;8.75;3.83;;;;;;;;;;5065255;28;20090;-79
2021/07/18 06:53:17;;;;;;;5.53;3.30;;;;;;;;;;5099074;28;20421;-78
2021/07/18 06:55:43;;;;;;;14.07;3.72;;;;;;;;;;5080403;28;20121;-79
2021/07/18 06:58:08;;;;;;;8.48;4.10;;;;;;;;;;5080462;28;20471;-78
2021/07/18 07:00:34;;;;;;;7.18;4.43;;;;;;;;;;5083432;28;20075;-79
2021/07/18 07:02:59;;;;;;;9.02;3.83;;;;;;;;;;5081992;28;20036;-79
2021/07/18 07:05:25;;;;;;;7.05;3.72;;;;;;;;;;5079240;28;20043;-77
2021/07/18 07:07:50;;;;;;;5.93;3.53;;;;;;;;;;5079254;28;20032;-77
2021/07/18 07:10:18;;;;;;;5.57;3.78;;;;;;;;;;5082911;28;20379;-79
2021/07/18 07:12:44;;;;;;;9.73;3.85;;;;;;;;;;5078956;28;20040;-79
2021/07/18 07:15:10;;;;;;;6.43;3.65;;;;;;;;;;5079259;28;20042;-77
2021/07/18 07:17:35;;;;;;;7.15;3.67;;;;;;;;;;5079241;28;20097;-77
2021/07/18 07:20:04;;;;;;;7.32;3.00;;;;;;;;;;5082023;28;20032;-79
2021/07/18 07:22:29;;;;;;;11.40;3.53;;;;;;;;;;5101113;28;20103;-79
2021/07/18 07:24:54;;;;;;;6.38;3.08;;;;;;;;;;5100985;28;20103;-79
2021/07/18 07:27:22;;;;;;;8.90;3.45;;;;;;;;;;5083604;28;20398;-79
2021/07/18 07:29:48;;;;;;;5.50;2.90;;;;;;;;;;5081447;28;20448;-79
2021/07/18 07:32:13;;;;;;;9.18;3.40;;;;;;;;;;5099992;28;20055;-79
2021/07/18 07:34:39;;;;;;;4.20;3.15;;;;;;;;;;5082008;28;20483;-81
2021/07/18 07:37:04;;;;;;;6.45;3.88;;;;;;;;;;5082794;28;20062;-80
2021/07/18 07:39:30;;;;;;;6.82;3.33;;;;;;;;;;5082115;28;20040;-79
2021/07/18 07:41:56;;;;;;;9.82;3.63;;;;;;;;;;5065284;28;20031;-80
2021/07/18 07:44:21;;;;;;;5.95;3.30;;;;;;;;;;5065400;28;20039;-81
2021/07/18 07:46:47;;;;;;;10.35;3.75;;;;;;;;;;5066520;28;20032;-79
2021/07/18 07:49:13;;;;;;;9.10;3.08;;;;;;;;;;5066008;28;20028;-78
2021/07/18 07:51:38;;;;;;;4.72;3.10;;;;;;;;;;5080701;28;20032;-78
2021/07/18 07:54:04;;;;;;;6.85;2.50;;;;;;;;;;5064141;28;20060;-79
2021/07/18 07:56:30;;;;;;;3.95;2.60;;;;;;;;;;5098720;28;20028;-78
2021/07/18 07:58:56;;;;;;;4.88;2.60;;;;;;;;;;5079808;28;20042;-78
2021/07/18 08:01:24;;;;;;;4.40;2.20;;;;;;;;;;5063610;28;20119;-78
2021/07/18 08:03:49;;;;;;;4.25;2.40;;;;;;;;;;5079920;28;20051;-78
2021/07/18 08:06:15;;;;;;;4.97;2.55;;;;;;;;;;5099251;28;20032;-78
2021/07/18 08:08:42;;;;;;;6.28;2.75;;;;;;;;;;5080785;28;20115;-78
2021/07/18 08:11:08;;;;;;;4.18;2.20;;;;;;;;;;5064130;28;20040;-79
2021/07/18 08:13:34;;;;;;;5.72;2.15;;;;;;;;;;5081133;28;20071;-78
2021/07/18 08:16:06;;;;;;;5.25;2.95;;;;;;;;;;5061476;28;20028;-77
2021/07/18 08:18:31;;;;;;;6.35;2.55;;;;;;;;;;5060672;28;20040;-77
2021/07/18 08:20:57;;;;;;;4.75;2.17;;;;;;;;;;5078927;27;20051;-77
2021/07/18 08:23:22;;;;;;;9.73;2.50;;;;;;;;;;5136148;27;20417;-77
2021/07/18 08:25:48;;;;;;;4.70;2.15;;;;;;;;;;5118041;27;20039;-77
2021/07/18 08:28:14;;;;;;;5.85;2.28;;;;;;;;;;5100736;27;20093;-77
2021/07/18 08:30:44;;;;;;;4.63;2.00;;;;;;;;;;5100806;27;20058;-77
2021/07/18 08:33:10;;;;;;;7.22;2.30;;;;;;;;;;5118267;27;20057;-77
2021/07/18 08:35:36;;;;;;;4.53;2.05;;;;;;;;;;5100730;27;20410;-77
2021/07/18 08:38:01;;;;;;;6.95;2.25;;;;;;;;;;5117696;27;20031;-77
2021/07/18 08:40:30;;;;;;;4.07;1.80;;;;;;;;;;5100772;27;20443;-77
2021/07/18 08:42:56;;;;;;;4.40;2.30;;;;;;;;;;5100546;27;20038;-77
2021/07/18 08:45:22;;;;;;;4.60;2.35;;;;;;;;;;5086872;28;20478;-79
2021/07/18 08:47:47;;;;;;;6.38;1.90;;;;;;;;;;5100692;28;20038;-79
2021/07/18 08:50:14;;;;;;;3.45;1.75;;;;;;;;;;5085140;28;20035;-78
2021/07/18 08:52:40;;;;;;;6.18;2.42;;;;;;;;;;5100032;28;20040;-81
2021/07/18 08:55:07;;;;;;;4.40;1.98;;;;;;;;;;5099151;28;20032;-79
2021/07/18 08:57:33;;;;;;;3.63;1.80;;;;;;;;;;5081449;28;20046;-77
2021/07/18 08:59:59;;;;;;;8.00;3.00;;;;;;;;;;5081858;28;20028;-80
2021/07/18 09:02:25;;;;;;;4.25;2.90;;;;;;;;;;5115766;28;20446;-79
2021/07/18 09:04:50;;;;;;;8.05;1.92;;;;;;;;;;5116198;28;20143;-80
2021/07/18 09:07:19;;;;;;;2.88;1.60;;;;;;;;;;5100897;28;20032;-83
2021/07/18 09:09:46;;;;;;;3.13;1.70;;;;;;;;;;5086451;28;20106;-80
2021/07/18 09:12:14;;;;;;;3.15;1.88;;;;;;;;;;5104289;28;20032;-82
2021/07/18 09:14:45;;;;;;;4.10;1.80;;;;;;;;;;5088898;28;20024;-82
2021/07/18 09:17:14;;;;;;;4.88;2.00;;;;;;;;;;5069748;28;20088;-82
2021/07/18 09:19:42;;;;;;;3.17;1.58;;;;;;;;;;5086741;28;20035;-83
2021/07/18 09:22:09;;;;;;;4.55;1.92;;;;;;;;;;5083971;28;20391;-79
2021/07/18 09:24:40;;;;;;;3.88;1.80;;;;;;;;;;5080549;28;20044;-79
2021/07/18 09:27:14;;;;;;;3.97;1.50;;;;;;;;;;5064527;28;20051;-79
2021/07/18 09:29:44;;;;;;;8.80;2.05;;;;;;;;;;5080714;28;20036;-79
2021/07/18 09:32:26;;;;;;;6.28;1.67;;;;;;;;;;5081295;28;20044;-80
2021/07/18 09:34:58;;;;;;;7.10;1.65;;;;;;;;;;5080223;28;20384;-77
2021/07/18 09:37:28;;;;;;;3.88;1.67;;;;;;;;;;5096995;28;20036;-81
2021/07/18 09:40:01;;;;;;;2.60;1.50;;;;;;;;;;5080043;28;20079;-79
2021/07/18 09:42:37;;;;;;;4.32;1.70;;;;;;;;;;5065382;28;20040;-79
2021/07/18 09:45:16;;;;;;;3.80;1.63;;;;;;;;;;5083085;28;20070;-81
2021/07/18 09:47:54;;;;;;;3.95;1.70;;;;;;;;;;5080468;28;20047;-82
2021/07/18 09:50:46;;;;;;;4.93;1.55;;;;;;;;;;5064101;28;20040;-80
2021/07/18 09:53:22;;;;;;;4.00;1.63;;;;;;;;;;5061259;28;20044;-81
2021/07/18 09:56:16;;;;;;;4.00;2.47;;;;;;;;;;5098600;28;20024;-81
2021/07/18 09:58:56;;;;;;;5.18;1.85;;;;;;;;;;5079728;28;20032;-82
2021/07/18 10:01:23;;;;;;;5.57;1.50;;;;;;;;;;5080613;28;20028;-82
2021/07/18 10:03:50;;;;;;;2.97;1.60;;;;;;;;;;5080307;28;20032;-81
2021/07/18 10:06:20;;;;;;;9.10;1.70;;;;;;;;;;5080254;28;20411;-81
2021/07/18 10:08:46;;;;;;;3.58;1.85;;;;;;;;;;5062971;28;20036;-82
2021/07/18 10:11:17;;;;;;;3.92;1.42;;;;;;;;;;5080410;28;20089;-81
2021/07/18 10:13:44;;;;;;;4.43;1.60;;;;;;;;;;5072166;27;20035;-81
2021/07/18 10:16:10;;;;;;;5.18;1.45;;;;;;;;;;5103858;28;20035;-80
2021/07/18 10:18:37;;;;;;;5.57;1.88;;;;;;;;;;5101523;27;20039;-83
2021/07/18 10:21:05;;;;;;;2.72;1.55;;;;;;;;;;5118965;27;20045;-81
2021/07/18 10:23:33;;;;;;;3.95;1.73;;;;;;;;;;5099917;28;20043;-82
2021/07/18 10:26:00;;;;;;;2.65;1.63;;;;;;;;;;5117025;28;20056;-82
2021/07/18 10:28:26;;;;;;;1.88;1.20;;;;;;;;;;5100955;28;20462;-83
2021/07/18 10:30:56;;;;;;;3.90;1.33;;;;;;;;;;5118053;28;20085;-82
2021/07/18 10:33:23;;;;;;;4.43;1.75;;;;;;;;;;5096090;28;20032;-82
2021/07/18 10:35:52;;;;;;;3.33;1.42;;;;;;;;;;5098055;28;20104;-82
2021/07/18 10:38:22;;;;;;;1.50;1.38;;;;;;;;;;5098699;28;20040;-82
2021/07/18 10:40:50;;;;;;;8.10;1.70;;;;;;;;;;5117726;28;20054;-82
2021/07/18 10:43:38;;;;;;;5.53;1.40;;;;;;;;;;5099691;28;20027;-83
2021/07/18 10:46:05;;;;;;;4.60;1.45;;;;;;;;;;5100083;28;20036;-82
2021/07/18 10:48:41;;;;;;;2.80;1.40;;;;;;;;;;5099576;28;20123;-82
2021/07/18 10:51:06;;;;;;;6.63;1.80;;;;;;;;;;5117811;28;20038;-82
2021/07/18 10:53:35;;;;;;;4.30;1.95;;;;;;;;;;5118217;28;20027;-83
2021/07/18 10:56:04;;;;;;;4.47;1.88;;;;;;;;;;5101088;28;20032;-83
2021/07/18 10:58:39;;;;;;;2.13;1.20;;;;;;;;;;5100812;28;20095;-83
2021/07/18 11:01:27;;;;;;;1.85;1.30;;;;;;;;;;5118344;28;20219;-82
2021/07/18 11:03:53;;;;;;;4.53;1.80;;;;;;;;;;5100932;28;20031;-82
2021/07/18 11:06:28;;;;;;;6.45;1.75;;;;;;;;;;5100942;28;20047;-82
2021/07/18 11:09:11;;;;;;;2.75;1.42;;;;;;;;;;5082080;28;20124;-84
2021/07/18 11:11:50;;;;;;;3.75;1.40;;;;;;;;;;5082096;28;20040;-83
2021/07/18 11:14:23;;;;;;;5.85;1.45;;;;;;;;;;5116091;28;20440;-82
2021/07/18 11:16:49;;;;;;;2.35;1.30;;;;;;;;;;5098209;28;20036;-84
2021/07/18 11:19:40;;;;;;;3.20;1.42;;;;;;;;;;5115549;28;20049;-82
2021/07/18 11:22:12;;;;;;;2.65;1.20;;;;;;;;;;5098435;28;20468;-83
2021/07/18 11:24:49;;;;;;;3.88;1.40;;;;;;;;;;5081487;28;20041;-82
2021/07/18 11:27:25;;;;;;;1.98;1.40;;;;;;;;;;5060405;28;20039;-83
2021/07/18 11:29:51;;;;;;;2.17;1.33;;;;;;;;;;5060735;28;20043;-83
2021/07/18 11:32:25;;;;;;;8.18;1.60;;;;;;;;;;5060354;28;20040;-83
2021/07/18 11:34:52;;;;;;;2.55;1.48;;;;;;;;;;5063674;28;20036;-83
2021/07/18 11:37:18;;;;;;;2.58;1.40;;;;;;;;;;5064137;28;20075;-82
2021/07/18 11:39:44;;;;;;;2.92;1.30;;;;;;;;;;5063810;28;20066;-83
2021/07/18 11:42:12;;;;;;;4.68;1.52;;;;;;;;;;5080967;28;20491;-83
2021/07/18 11:44:39;;;;;;;7.32;1.60;;;;;;;;;;5081422;28;20044;-83
2021/07/18 11:47:08;;;;;;;2.80;1.63;;;;;;;;;;5065199;28;20040;-83
2021/07/18 11:49:37;;;;;;;6.00;1.17;;;;;;;;;;5065746;28;20127;-83
2021/07/18 11:52:05;;;;;;;1.80;1.17;;;;;;;;;;5065455;28;20029;-82
2021/07/18 11:54:32;;;;;;;1.58;1.17;;;;;;;;;;5081413;28;20088;-83
2021/07/18 11:56:57;;;;;;;18.65;11.98;;;;;;;;;;5082285;28;20029;-83
2021/07/18 11:59:28;;;;;;;49.20;42.38;;;;;;;;;;5080497;28;20035;-82
2021/07/18 12:01:54;;;;;;;4.55;2.40;;;;;;;;;;5063962;28;20033;-83
2021/07/18 12:04:23;;;;;;;2.75;1.50;;;;;;;;;;5064730;28;20029;-83
2021/07/18 12:06:55;;;;;;;1.65;1.20;;;;;;;;;;5080909;28;20510;-85
2021/07/18 12:09:23;;;;;;;1.85;1.15;;;;;;;;;;5064315;28;20185;-85
2021/07/18 12:11:51;;;;;;;4.70;1.40;;;;;;;;;;5063909;28;20036;-83
2021/07/18 12:14:20;;;;;;;4.00;1.30;;;;;;;;;;5063707;28;20025;-83
2021/07/18 12:16:47;;;;;;;2.20;1.23;;;;;;;;;;5079239;28;20035;-83
2021/07/18 12:19:14;;;;;;;3.28;1.50;;;;;;;;;;5080317;28;20036;-83
2021/07/18 12:21:44;;;;;;;4.28;1.10;;;;;;;;;;5062998;28;20032;-83
2021/07/18 12:24:13;;;;;;;1.77;1.10;;;;;;;;;;5062385;28;20159;-83
2021/07/18 12:26:45;;;;;;;3.28;1.30;;;;;;;;;;5079287;28;20072;-82
2021/07/18 12:29:12;;;;;;;3.90;1.73;;;;;;;;;;5062666;28;20404;-83
2021/07/18 12:31:39;;;;;;;2.25;1.40;;;;;;;;;;5062485;28;20063;-83
2021/07/18 12:34:07;;;;;;;2.58;1.50;;;;;;;;;;5063116;28;20407;-83
2021/07/18 12:36:51;;;;;;;3.42;1.40;;;;;;;;;;5063025;28;20089;-83
2021/07/18 12:39:18;;;;;;;2.15;1.30;;;;;;;;;;5062227;28;20047;-83
2021/07/18 12:41:45;;;;;;;1.85;1.27;;;;;;;;;;5063020;28;20105;-83
2021/07/18 12:44:15;;;;;;;2.35;1.33;;;;;;;;;;5063219;28;20037;-84
2021/07/18 12:46:42;;;;;;;2.45;1.27;;;;;;;;;;5063072;28;20028;-83
2021/07/18 12:49:11;;;;;;;2.33;1.27;;;;;;;;;;5079569;28;20059;-83
2021/07/18 12:51:41;;;;;;;1.90;1.48;;;;;;;;;;5062080;28;20033;-85
2021/07/18 12:54:08;;;;;;;2.08;1.10;;;;;;;;;;5062225;28;20051;-82
2021/07/18 12:56:34;;;;;;;4.80;1.60;;;;;;;;;;5062880;28;20032;-83
2021/07/18 12:59:00;;;;;;;4.20;1.52;;;;;;;;;;5062240;28;20037;-82
2021/07/18 13:01:27;;;;;;;3.15;1.60;;;;;;;;;;5062593;28;20086;-83
2021/07/18 13:04:07;;;;;;;5.28;1.20;;;;;;;;;;5078939;28;20040;-83
2021/07/18 13:06:41;;;;;;;2.42;1.33;;;;;;;;;;5078731;28;20032;-83
2021/07/18 13:09:19;;;;;;;2.70;1.45;;;;;;;;;;5061383;28;20044;-83
2021/07/18 13:11:55;;;;;;;1.58;1.33;;;;;;;;;;5068388;28;20121;-82
2021/07/18 13:14:35;;;;;;;3.00;1.40;;;;;;;;;;5068656;28;20036;-82
2021/07/18 13:17:21;;;;;;;2.38;1.52;;;;;;;;;;5085669;28;20033;-82
2021/07/18 13:19:59;;;;;;;4.60;1.70;;;;;;;;;;5073549;28;20040;-82
2021/07/18 13:22:33;;;;;;;2.20;1.38;;;;;;;;;;5069797;28;20040;-82
2021/07/18 13:25:04;;;;;;;2.13;1.23;;;;;;;;;;5067905;28;20071;-82
2021/07/18 13:27:30;;;;;;;4.95;1.23;;;;;;;;;;5066590;28;20032;-82
2021/07/18 13:30:05;;;;;;;3.40;1.20;;;;;;;;;;5068591;28;20083;-82
2021/07/18 13:32:38;;;;;;;2.30;1.20;;;;;;;;;;5068177;28;20029;-82
2021/07/18 13:35:12;;;;;;;2.05;1.55;;;;;;;;;;5067259;28;20055;-83
2021/07/18 13:37:48;;;;;;;4.05;1.17;;;;;;;;;;5074963;28;20041;-82
2021/07/18 13:40:30;;;;;;;6.72;1.70;;;;;;;;;;5063602;28;20040;-82
2021/07/18 13:43:26;;;;;;;4.45;1.70;;;;;;;;;;5063361;28;20038;-82
2021/07/18 13:45:59;;;;;;;3.55;1.50;;;;;;;;;;5062360;28;20033;-82
2021/07/18 13:48:34;;;;;;;4.53;1.50;;;;;;;;;;5063433;28;20037;-82
2021/07/18 13:51:03;;;;;;;2.47;1.42;;;;;;;;;;5062523;28;20104;-82
2021/07/18 13:53:29;;;;;;;6.82;1.75;;;;;;;;;;5046849;28;20068;-82
2021/07/18 13:55:56;;;;;;;2.75;1.45;;;;;;;;;;5046240;28;20399;-82
2021/07/18 13:58:24;;;;;;;5.13;1.90;;;;;;;;;;5064010;28;20024;-82
2021/07/18 14:00:50;;;;;;;2.53;1.25;;;;;;;;;;5061755;28;20531;-82
2021/07/18 14:03:15;;;;;;;2.80;1.50;;;;;;;;;;5061276;28;20037;-81
2021/07/18 14:05:43;;;;;;;2.03;1.35;;;;;;;;;;5061049;28;20090;-86
2021/07/18 14:08:09;;;;;;;3.42;1.70;;;;;;;;;;5075349;28;20046;-84
2021/07/18 14:10:36;;;;;;;2.28;1.48;;;;;;;;;;5080998;28;20064;-82
2021/07/18 14:13:03;;;;;;;6.47;1.80;;;;;;;;;;5079938;28;20062;-81
2021/07/18 14:15:29;;;;;;;9.13;1.35;;;;;;;;;;5063633;28;20059;-82
2021/07/18 14:17:55;;;;;;;2.90;1.45;;;;;;;;;;5065350;28;20048;-82
2021/07/18 14:20:26;;;;;;;3.28;1.60;;;;;;;;;;5065894;28;20032;-82
2021/07/18 14:22:55;;;;;;;3.13;1.50;;;;;;;;;;5069901;28;20044;-82
2021/07/18 14:25:22;;;;;;;5.97;1.55;;;;;;;;;;5108114;28;20061;-82
2021/07/18 14:27:57;;;;;;;4.35;1.70;;;;;;;;;;5092685;28;20047;-82
2021/07/18 14:30:28;;;;;;;9.75;1.67;;;;;;;;;;5109628;28;20035;-82
2021/07/18 14:32:55;;;;;;;3.22;1.50;;;;;;;;;;5108335;28;20035;-81
2021/07/18 14:35:22;;;;;;;6.03;1.35;;;;;;;;;;5108778;28;20080;-82
2021/07/18 14:37:48;;;;;;;3.30;1.58;;;;;;;;;;5124089;28;20038;-83
2021/07/18 14:40:16;;;;;;;4.05;1.50;;;;;;;;;;5102682;28;20027;-80
2021/07/18 14:42:42;;;;;;;6.50;1.67;;;;;;;;;;5085760;28;20031;-80
2021/07/18 14:45:10;;;;;;;4.50;1.85;;;;;;;;;;5105193;28;20040;-81